sensor_id;sensor_type;location;lat;lon;timestamp;temperature;humidity
72106;SHT30;59975;47.646;18.318;2023-03-16T00:02:04;1.26;71.12
72106;SHT30;59975;47.646;18.318;2023-03-16T00:04:30;1.21;71.25
72106;SHT30;59975;47.646;18.318;2023-03-16T00:06:56;1.17;71.65
72106;SHT30;59975;47.646;18.318;2023-03-16T00:09:22;1.08;72.21
72106;SHT30;59975;47.646;18.318;2023-03-16T00:11:56;1.11;72.18
72106;SHT30;59975;47.646;18.318;2023-03-16T00:14:22;1.08;72.51
72106;SHT30;59975;47.646;18.318;2023-03-16T00:16:47;1.13;72.47
72106;SHT30;59975;47.646;18.318;2023-03-16T00:19:13;1.13;72.55
72106;SHT30;59975;47.646;18.318;2023-03-16T00:21:38;1.11;72.50
72106;SHT30;59975;47.646;18.318;2023-03-16T00:24:04;1.14;72.69
72106;SHT30;59975;47.646;18.318;2023-03-16T00:26:29;1.10;72.82
72106;SHT30;59975;47.646;18.318;2023-03-16T00:28:56;0.97;73.00
72106;SHT30;59975;47.646;18.318;2023-03-16T00:31:21;0.91;72.95
72106;SHT30;59975;47.646;18.318;2023-03-16T00:33:49;1.00;72.78
72106;SHT30;59975;47.646;18.318;2023-03-16T00:36:15;1.07;72.57
72106;SHT30;59975;47.646;18.318;2023-03-16T00:38:42;1.05;72.74
72106;SHT30;59975;47.646;18.318;2023-03-16T00:41:10;1.04;73.06
72106;SHT30;59975;47.646;18.318;2023-03-16T00:43:40;1.03;73.16
72106;SHT30;59975;47.646;18.318;2023-03-16T00:46:14;1.05;73.42
72106;SHT30;59975;47.646;18.318;2023-03-16T00:48:42;1.04;73.79
72106;SHT30;59975;47.646;18.318;2023-03-16T00:51:10;1.03;74.13
72106;SHT30;59975;47.646;18.318;2023-03-16T00:53:41;0.96;74.54
72106;SHT30;59975;47.646;18.318;2023-03-16T00:56:08;0.90;75.04
72106;SHT30;59975;47.646;18.318;2023-03-16T00:58:35;0.87;74.98
72106;SHT30;59975;47.646;18.318;2023-03-16T01:03:27;0.81;75.39
72106;SHT30;59975;47.646;18.318;2023-03-16T01:05:53;0.80;75.42
72106;SHT30;59975;47.646;18.318;2023-03-16T01:08:24;0.81;75.25
72106;SHT30;59975;47.646;18.318;2023-03-16T01:10:49;0.80;75.26
72106;SHT30;59975;47.646;18.318;2023-03-16T01:13:15;0.83;75.32
72106;SHT30;59975;47.646;18.318;2023-03-16T01:15:40;0.75;75.44
72106;SHT30;59975;47.646;18.318;2023-03-16T01:18:06;0.76;75.32
72106;SHT30;59975;47.646;18.318;2023-03-16T01:20:31;0.80;75.20
72106;SHT30;59975;47.646;18.318;2023-03-16T01:22:57;0.76;75.25
72106;SHT30;59975;47.646;18.318;2023-03-16T01:25:23;0.75;75.42
72106;SHT30;59975;47.646;18.318;2023-03-16T01:27:49;0.80;75.15
72106;SHT30;59975;47.646;18.318;2023-03-16T01:30:14;0.77;75.50
72106;SHT30;59975;47.646;18.318;2023-03-16T01:32:40;0.80;75.62
72106;SHT30;59975;47.646;18.318;2023-03-16T01:35:06;0.81;75.96
72106;SHT30;59975;47.646;18.318;2023-03-16T01:37:32;0.75;76.38
72106;SHT30;59975;47.646;18.318;2023-03-16T01:39:57;0.75;76.84
72106;SHT30;59975;47.646;18.318;2023-03-16T01:42:23;0.66;77.41
72106;SHT30;59975;47.646;18.318;2023-03-16T01:44:52;0.72;77.57
72106;SHT30;59975;47.646;18.318;2023-03-16T01:47:19;0.73;78.00
72106;SHT30;59975;47.646;18.318;2023-03-16T01:49:45;0.77;78.16
72106;SHT30;59975;47.646;18.318;2023-03-16T01:52:18;0.75;78.57
72106;SHT30;59975;47.646;18.318;2023-03-16T01:54:53;0.77;78.61
72106;SHT30;59975;47.646;18.318;2023-03-16T01:57:22;0.86;78.67
72106;SHT30;59975;47.646;18.318;2023-03-16T02:00:06;0.87;78.76
72106;SHT30;59975;47.646;18.318;2023-03-16T02:02:37;0.86;79.17
72106;SHT30;59975;47.646;18.318;2023-03-16T02:05:18;0.76;79.48
72106;SHT30;59975;47.646;18.318;2023-03-16T02:07:50;0.76;79.98
72106;SHT30;59975;47.646;18.318;2023-03-16T02:10:18;0.70;80.29
72106;SHT30;59975;47.646;18.318;2023-03-16T02:12:44;0.77;80.39
72106;SHT30;59975;47.646;18.318;2023-03-16T02:15:12;0.73;80.71
72106;SHT30;59975;47.646;18.318;2023-03-16T02:17:40;0.73;81.09
72106;SHT30;59975;47.646;18.318;2023-03-16T02:20:45;0.67;81.23
72106;SHT30;59975;47.646;18.318;2023-03-16T02:23:03;0.70;81.64
72106;SHT30;59975;47.646;18.318;2023-03-16T02:25:47;0.77;81.66
72106;SHT30;59975;47.646;18.318;2023-03-16T02:31:04;0.76;81.94
72106;SHT30;59975;47.646;18.318;2023-03-16T02:33:32;0.72;82.16
72106;SHT30;59975;47.646;18.318;2023-03-16T02:35:59;0.70;82.29
72106;SHT30;59975;47.646;18.318;2023-03-16T02:38:24;0.69;82.51
72106;SHT30;59975;47.646;18.318;2023-03-16T02:40:57;0.73;82.53
72106;SHT30;59975;47.646;18.318;2023-03-16T02:43:27;0.67;83.11
72106;SHT30;59975;47.646;18.318;2023-03-16T02:45:59;0.60;83.33
72106;SHT30;59975;47.646;18.318;2023-03-16T02:48:32;0.60;83.46
72106;SHT30;59975;47.646;18.318;2023-03-16T02:50:59;0.63;83.53
72106;SHT30;59975;47.646;18.318;2023-03-16T02:53:25;0.67;83.46
72106;SHT30;59975;47.646;18.318;2023-03-16T02:55:50;0.65;83.50
72106;SHT30;59975;47.646;18.318;2023-03-16T02:58:16;0.60;83.60
72106;SHT30;59975;47.646;18.318;2023-03-16T03:00:42;0.56;83.77
72106;SHT30;59975;47.646;18.318;2023-03-16T03:03:10;0.53;84.08
72106;SHT30;59975;47.646;18.318;2023-03-16T03:05:36;0.46;84.26
72106;SHT30;59975;47.646;18.318;2023-03-16T03:08:02;0.41;84.64
72106;SHT30;59975;47.646;18.318;2023-03-16T03:10:28;0.36;84.84
72106;SHT30;59975;47.646;18.318;2023-03-16T03:12:53;0.32;85.15
72106;SHT30;59975;47.646;18.318;2023-03-16T03:15:19;0.28;85.46
72106;SHT30;59975;47.646;18.318;2023-03-16T03:17:45;0.26;85.52
72106;SHT30;59975;47.646;18.318;2023-03-16T03:20:12;0.23;85.66
72106;SHT30;59975;47.646;18.318;2023-03-16T03:22:43;0.23;85.53
72106;SHT30;59975;47.646;18.318;2023-03-16T03:25:13;0.25;85.52
72106;SHT30;59975;47.646;18.318;2023-03-16T03:27:39;0.21;85.59
72106;SHT30;59975;47.646;18.318;2023-03-16T03:30:08;0.14;85.77
72106;SHT30;59975;47.646;18.318;2023-03-16T03:32:34;0.11;85.78
72106;SHT30;59975;47.646;18.318;2023-03-16T03:34:59;0.09;85.81
72106;SHT30;59975;47.646;18.318;2023-03-16T03:37:25;0.15;85.82
72106;SHT30;59975;47.646;18.318;2023-03-16T03:39:50;0.18;85.71
72106;SHT30;59975;47.646;18.318;2023-03-16T03:42:17;0.15;85.83
72106;SHT30;59975;47.646;18.318;2023-03-16T03:44:43;0.11;86.01
72106;SHT30;59975;47.646;18.318;2023-03-16T03:47:08;0.11;86.06
72106;SHT30;59975;47.646;18.318;2023-03-16T03:49:34;0.11;86.15
72106;SHT30;59975;47.646;18.318;2023-03-16T03:52:00;0.08;86.22
72106;SHT30;59975;47.646;18.318;2023-03-16T03:54:29;0.12;86.20
72106;SHT30;59975;47.646;18.318;2023-03-16T03:56:54;0.06;86.28
72106;SHT30;59975;47.646;18.318;2023-03-16T03:59:20;0.05;86.48
72106;SHT30;59975;47.646;18.318;2023-03-16T04:01:46;0.04;86.53
72106;SHT30;59975;47.646;18.318;2023-03-16T04:04:14;0.02;86.67
72106;SHT30;59975;47.646;18.318;2023-03-16T04:06:39;-0.05;86.75
72106;SHT30;59975;47.646;18.318;2023-03-16T04:09:06;-0.01;86.90
72106;SHT30;59975;47.646;18.318;2023-03-16T04:11:32;-0.02;87.00
72106;SHT30;59975;47.646;18.318;2023-03-16T04:13:58;-0.01;87.18
72106;SHT30;59975;47.646;18.318;2023-03-16T04:16:25;-0.09;87.34
72106;SHT30;59975;47.646;18.318;2023-03-16T04:18:54;-0.05;87.37
72106;SHT30;59975;47.646;18.318;2023-03-16T04:21:20;-0.01;87.06
72106;SHT30;59975;47.646;18.318;2023-03-16T04:23:46;-0.03;86.94
72106;SHT30;59975;47.646;18.318;2023-03-16T04:26:12;-0.03;87.08
72106;SHT30;59975;47.646;18.318;2023-03-16T04:28:38;-0.03;87.02
72106;SHT30;59975;47.646;18.318;2023-03-16T04:31:07;-0.03;86.97
72106;SHT30;59975;47.646;18.318;2023-03-16T04:33:33;-0.15;87.19
72106;SHT30;59975;47.646;18.318;2023-03-16T04:35:59;-0.10;87.23
72106;SHT30;59975;47.646;18.318;2023-03-16T04:38:27;-0.09;87.21
72106;SHT30;59975;47.646;18.318;2023-03-16T04:40:52;-0.03;87.13
72106;SHT30;59975;47.646;18.318;2023-03-16T04:43:18;-0.06;87.15
72106;SHT30;59975;47.646;18.318;2023-03-16T04:45:43;-0.08;87.16
72106;SHT30;59975;47.646;18.318;2023-03-16T04:48:09;-0.08;87.12
72106;SHT30;59975;47.646;18.318;2023-03-16T04:50:35;-0.06;87.20
72106;SHT30;59975;47.646;18.318;2023-03-16T04:53:00;-0.03;87.21
72106;SHT30;59975;47.646;18.318;2023-03-16T04:55:26;-0.09;87.15
72106;SHT30;59975;47.646;18.318;2023-03-16T04:57:51;-0.12;87.33
72106;SHT30;59975;47.646;18.318;2023-03-16T05:00:17;-0.13;87.34
72106;SHT30;59975;47.646;18.318;2023-03-16T05:02:44;-0.13;87.39
72106;SHT30;59975;47.646;18.318;2023-03-16T05:05:10;-0.15;87.32
72106;SHT30;59975;47.646;18.318;2023-03-16T05:07:35;-0.10;87.30
72106;SHT30;59975;47.646;18.318;2023-03-16T05:10:01;-0.10;87.21
72106;SHT30;59975;47.646;18.318;2023-03-16T05:12:26;-0.08;87.17
72106;SHT30;59975;47.646;18.318;2023-03-16T05:14:52;-0.05;87.04
72106;SHT30;59975;47.646;18.318;2023-03-16T05:17:17;-0.10;87.06
72106;SHT30;59975;47.646;18.318;2023-03-16T05:19:43;-0.06;86.96
72106;SHT30;59975;47.646;18.318;2023-03-16T05:22:08;-0.10;86.93
72106;SHT30;59975;47.646;18.318;2023-03-16T05:24:34;-0.22;87.32
72106;SHT30;59975;47.646;18.318;2023-03-16T05:27:01;-0.15;87.08
72106;SHT30;59975;47.646;18.318;2023-03-16T05:29:27;-0.26;87.25
72106;SHT30;59975;47.646;18.318;2023-03-16T05:31:55;-0.34;87.48
72106;SHT30;59975;47.646;18.318;2023-03-16T05:34:21;-0.26;87.43
72106;SHT30;59975;47.646;18.318;2023-03-16T05:36:46;-0.20;87.35
72106;SHT30;59975;47.646;18.318;2023-03-16T05:39:12;-0.26;87.32
72106;SHT30;59975;47.646;18.318;2023-03-16T05:41:38;-0.15;87.08
72106;SHT30;59975;47.646;18.318;2023-03-16T05:44:03;-0.06;86.94
72106;SHT30;59975;47.646;18.318;2023-03-16T05:46:29;-0.13;86.98
72106;SHT30;59975;47.646;18.318;2023-03-16T05:48:54;-0.13;87.00
72106;SHT30;59975;47.646;18.318;2023-03-16T05:51:20;-0.08;86.95
72106;SHT30;59975;47.646;18.318;2023-03-16T05:53:45;0.05;86.72
72106;SHT30;59975;47.646;18.318;2023-03-16T05:56:12;0.12;86.58
72106;SHT30;59975;47.646;18.318;2023-03-16T05:58:37;0.21;86.43
72106;SHT30;59975;47.646;18.318;2023-03-16T06:01:03;0.29;86.12
72106;SHT30;59975;47.646;18.318;2023-03-16T06:03:30;0.28;86.17
72106;SHT30;59975;47.646;18.318;2023-03-16T06:05:56;0.33;86.33
72106;SHT30;59975;47.646;18.318;2023-03-16T06:08:21;0.48;85.87
72106;SHT30;59975;47.646;18.318;2023-03-16T06:10:47;0.62;85.42
72106;SHT30;59975;47.646;18.318;2023-03-16T06:13:13;0.72;85.15
72106;SHT30;59975;47.646;18.318;2023-03-16T06:15:39;0.77;84.97
72106;SHT30;59975;47.646;18.318;2023-03-16T06:18:04;0.91;84.64
72106;SHT30;59975;47.646;18.318;2023-03-16T06:20:30;0.91;84.60
72106;SHT30;59975;47.646;18.318;2023-03-16T06:22:55;0.94;84.71
72106;SHT30;59975;47.646;18.318;2023-03-16T06:30:23;1.26;84.16
72106;SHT30;59975;47.646;18.318;2023-03-16T06:32:49;1.34;83.97
72106;SHT30;59975;47.646;18.318;2023-03-16T06:35:14;1.51;83.54
72106;SHT30;59975;47.646;18.318;2023-03-16T06:37:40;1.55;83.38
72106;SHT30;59975;47.646;18.318;2023-03-16T06:40:06;1.65;83.22
72106;SHT30;59975;47.646;18.318;2023-03-16T06:42:32;1.76;83.10
72106;SHT30;59975;47.646;18.318;2023-03-16T06:44:58;1.92;82.95
72106;SHT30;59975;47.646;18.318;2023-03-16T06:47:24;2.07;82.55
72106;SHT30;59975;47.646;18.318;2023-03-16T06:49:53;2.23;81.55
72106;SHT30;59975;47.646;18.318;2023-03-16T06:52:24;2.32;81.17
72106;SHT30;59975;47.646;18.318;2023-03-16T06:54:53;2.37;80.62
72106;SHT30;59975;47.646;18.318;2023-03-16T06:57:23;2.41;80.65
72106;SHT30;59975;47.646;18.318;2023-03-16T06:59:54;2.43;80.14
72106;SHT30;59975;47.646;18.318;2023-03-16T07:02:31;2.51;80.22
72106;SHT30;59975;47.646;18.318;2023-03-16T07:05:03;2.58;79.42
72106;SHT30;59975;47.646;18.318;2023-03-16T07:07:43;2.60;79.57
72106;SHT30;59975;47.646;18.318;2023-03-16T07:10:15;2.77;79.30
72106;SHT30;59975;47.646;18.318;2023-03-16T07:12:46;2.85;78.43
72106;SHT30;59975;47.646;18.318;2023-03-16T07:15:13;2.81;77.93
72106;SHT30;59975;47.646;18.318;2023-03-16T07:21:17;3.08;78.09
72106;SHT30;59975;47.646;18.318;2023-03-16T07:23:49;3.19;77.40
72106;SHT30;59975;47.646;18.318;2023-03-16T07:26:25;3.28;77.24
72106;SHT30;59975;47.646;18.318;2023-03-16T07:28:53;3.42;76.48
72106;SHT30;59975;47.646;18.318;2023-03-16T07:31:40;3.49;75.30
72106;SHT30;59975;47.646;18.318;2023-03-16T07:34:21;3.53;74.68
72106;SHT30;59975;47.646;18.318;2023-03-16T07:36:48;3.58;74.37
72106;SHT30;59975;47.646;18.318;2023-03-16T07:39:40;3.67;73.50
72106;SHT30;59975;47.646;18.318;2023-03-16T07:45:06;3.77;72.82
72106;SHT30;59975;47.646;18.318;2023-03-16T07:47:51;3.87;72.06
72106;SHT30;59975;47.646;18.318;2023-03-16T07:50:26;4.00;71.24
72106;SHT30;59975;47.646;18.318;2023-03-16T07:53:12;3.98;70.85
72106;SHT30;59975;47.646;18.318;2023-03-16T07:58:46;4.14;70.67
72106;SHT30;59975;47.646;18.318;2023-03-16T08:01:33;4.37;69.97
72106;SHT30;59975;47.646;18.318;2023-03-16T08:04:03;4.40;69.03
72106;SHT30;59975;47.646;18.318;2023-03-16T08:06:44;4.49;67.88
72106;SHT30;59975;47.646;18.318;2023-03-16T08:09:27;4.54;69.02
72106;SHT30;59975;47.646;18.318;2023-03-16T08:12:13;4.55;67.18
72106;SHT30;59975;47.646;18.318;2023-03-16T08:14:51;4.55;66.87
72106;SHT30;59975;47.646;18.318;2023-03-16T08:17:52;4.56;66.66
72106;SHT30;59975;47.646;18.318;2023-03-16T08:20:41;4.69;67.18
72106;SHT30;59975;47.646;18.318;2023-03-16T08:33:54;4.89;64.77
72106;SHT30;59975;47.646;18.318;2023-03-16T08:36:20;4.96;64.08
72106;SHT30;59975;47.646;18.318;2023-03-16T08:38:46;4.96;63.10
72106;SHT30;59975;47.646;18.318;2023-03-16T08:41:24;5.06;63.11
72106;SHT30;59975;47.646;18.318;2023-03-16T08:43:55;5.06;63.20
72106;SHT30;59975;47.646;18.318;2023-03-16T08:46:53;5.33;63.40
72106;SHT30;59975;47.646;18.318;2023-03-16T08:49:24;5.26;60.52
72106;SHT30;59975;47.646;18.318;2023-03-16T08:51:57;5.33;60.36
72106;SHT30;59975;47.646;18.318;2023-03-16T08:54:26;5.41;60.34
72106;SHT30;59975;47.646;18.318;2023-03-16T08:56:54;5.39;59.15
72106;SHT30;59975;47.646;18.318;2023-03-16T08:59:20;5.29;58.40
72106;SHT30;59975;47.646;18.318;2023-03-16T09:01:46;5.44;58.82
72106;SHT30;59975;47.646;18.318;2023-03-16T09:04:27;5.50;58.58
72106;SHT30;59975;47.646;18.318;2023-03-16T09:06:58;5.54;56.80
72106;SHT30;59975;47.646;18.318;2023-03-16T09:09:25;5.47;58.02
72106;SHT30;59975;47.646;18.318;2023-03-16T09:14:55;5.72;55.13
72106;SHT30;59975;47.646;18.318;2023-03-16T09:17:58;5.92;55.03
72106;SHT30;59975;47.646;18.318;2023-03-16T09:21:02;6.01;55.84
72106;SHT30;59975;47.646;18.318;2023-03-16T09:26:36;6.08;53.84
72106;SHT30;59975;47.646;18.318;2023-03-16T09:29:04;6.12;54.10
72106;SHT30;59975;47.646;18.318;2023-03-16T09:31:37;6.16;52.78
72106;SHT30;59975;47.646;18.318;2023-03-16T09:34:03;6.25;51.71
72106;SHT30;59975;47.646;18.318;2023-03-16T09:36:29;6.30;52.09
72106;SHT30;59975;47.646;18.318;2023-03-16T09:38:56;6.39;52.81
72106;SHT30;59975;47.646;18.318;2023-03-16T09:47:06;6.54;51.71
72106;SHT30;59975;47.646;18.318;2023-03-16T09:49:42;6.52;51.57
72106;SHT30;59975;47.646;18.318;2023-03-16T09:55:09;6.49;51.80
72106;SHT30;59975;47.646;18.318;2023-03-16T10:06:54;6.72;50.86
72106;SHT30;59975;47.646;18.318;2023-03-16T10:12:37;7.05;49.95
72106;SHT30;59975;47.646;18.318;2023-03-16T10:15:33;7.03;49.49
72106;SHT30;59975;47.646;18.318;2023-03-16T10:18:25;7.15;47.62
72106;SHT30;59975;47.646;18.318;2023-03-16T10:20:52;7.11;47.01
72106;SHT30;59975;47.646;18.318;2023-03-16T10:23:22;7.15;47.53
72106;SHT30;59975;47.646;18.318;2023-03-16T10:36:09;7.34;44.61
72106;SHT30;59975;47.646;18.318;2023-03-16T10:39:17;7.42;43.63
72106;SHT30;59975;47.646;18.318;2023-03-16T10:41:54;7.54;44.16
72106;SHT30;59975;47.646;18.318;2023-03-16T10:44:57;7.83;45.36
72106;SHT30;59975;47.646;18.318;2023-03-16T10:51:18;8.07;42.28
72106;SHT30;59975;47.646;18.318;2023-03-16T10:53:56;7.89;43.67
72106;SHT30;59975;47.646;18.318;2023-03-16T10:56:34;7.95;43.82
72106;SHT30;59975;47.646;18.318;2023-03-16T10:59:25;7.81;43.46
72106;SHT30;59975;47.646;18.318;2023-03-16T11:01:58;7.83;42.40
72106;SHT30;59975;47.646;18.318;2023-03-16T11:04:30;7.85;42.80
72106;SHT30;59975;47.646;18.318;2023-03-16T11:06:57;7.85;42.42
72106;SHT30;59975;47.646;18.318;2023-03-16T11:09:31;7.93;42.35
72106;SHT30;59975;47.646;18.318;2023-03-16T11:12:28;7.69;42.84
72106;SHT30;59975;47.646;18.318;2023-03-16T11:15:04;7.89;43.18
72106;SHT30;59975;47.646;18.318;2023-03-16T11:17:48;7.82;41.27
72106;SHT30;59975;47.646;18.318;2023-03-16T11:20:26;8.03;40.35
72106;SHT30;59975;47.646;18.318;2023-03-16T11:22:53;8.23;40.60
72106;SHT30;59975;47.646;18.318;2023-03-16T11:25:35;8.40;39.65
72106;SHT30;59975;47.646;18.318;2023-03-16T11:39:28;8.38;36.93
72106;SHT30;59975;47.646;18.318;2023-03-16T11:42:19;8.50;36.53
72106;SHT30;59975;47.646;18.318;2023-03-16T11:45:19;8.48;37.11
72106;SHT30;59975;47.646;18.318;2023-03-16T11:53:54;8.05;33.38
72106;SHT30;59975;47.646;18.318;2023-03-16T11:56:49;8.06;34.98
72106;SHT30;59975;47.646;18.318;2023-03-16T12:11:32;8.48;36.96
72106;SHT30;59975;47.646;18.318;2023-03-16T12:14:26;8.53;37.70
72106;SHT30;59975;47.646;18.318;2023-03-16T12:17:01;8.57;38.41
72106;SHT30;59975;47.646;18.318;2023-03-16T12:20:13;8.51;38.98
72106;SHT30;59975;47.646;18.318;2023-03-16T12:29:28;9.09;37.24
72106;SHT30;59975;47.646;18.318;2023-03-16T12:35:55;8.81;37.09
72106;SHT30;59975;47.646;18.318;2023-03-16T12:38:46;8.85;36.57
72106;SHT30;59975;47.646;18.318;2023-03-16T12:46:47;9.02;36.52
72106;SHT30;59975;47.646;18.318;2023-03-16T12:49:19;9.09;35.33
72106;SHT30;59975;47.646;18.318;2023-03-16T12:51:45;9.28;36.28
72106;SHT30;59975;47.646;18.318;2023-03-16T12:56:46;9.26;35.50
72106;SHT30;59975;47.646;18.318;2023-03-16T12:59:17;9.39;36.83
72106;SHT30;59975;47.646;18.318;2023-03-16T13:01:48;9.19;35.92
72106;SHT30;59975;47.646;18.318;2023-03-16T13:04:21;9.25;35.85
72106;SHT30;59975;47.646;18.318;2023-03-16T13:06:58;9.21;36.22
72106;SHT30;59975;47.646;18.318;2023-03-16T13:09:27;9.35;37.41
72106;SHT30;59975;47.646;18.318;2023-03-16T13:11:57;9.40;35.83
72106;SHT30;59975;47.646;18.318;2023-03-16T13:14:39;9.47;34.52
72106;SHT30;59975;47.646;18.318;2023-03-16T13:19:45;9.05;34.81
72106;SHT30;59975;47.646;18.318;2023-03-16T13:27:26;9.26;34.15
72106;SHT30;59975;47.646;18.318;2023-03-16T13:29:58;9.38;34.03
72106;SHT30;59975;47.646;18.318;2023-03-16T13:32:25;9.43;34.41
72106;SHT30;59975;47.646;18.318;2023-03-16T13:34:57;9.54;34.41
72106;SHT30;59975;47.646;18.318;2023-03-16T13:37:30;9.33;34.60
72106;SHT30;59975;47.646;18.318;2023-03-16T13:39:57;9.12;35.28
72106;SHT30;59975;47.646;18.318;2023-03-16T13:42:25;9.29;35.17
72106;SHT30;59975;47.646;18.318;2023-03-16T13:44:53;9.33;36.30
72106;SHT30;59975;47.646;18.318;2023-03-16T13:47:20;9.42;35.61
72106;SHT30;59975;47.646;18.318;2023-03-16T13:49:53;9.21;34.69
72106;SHT30;59975;47.646;18.318;2023-03-16T13:52:30;9.28;36.31
72106;SHT30;59975;47.646;18.318;2023-03-16T13:54:57;9.18;34.27
72106;SHT30;59975;47.646;18.318;2023-03-16T13:57:31;9.22;35.11
72106;SHT30;59975;47.646;18.318;2023-03-16T14:00:12;9.16;34.86
72106;SHT30;59975;47.646;18.318;2023-03-16T14:02:43;9.25;34.42
72106;SHT30;59975;47.646;18.318;2023-03-16T14:05:11;9.32;35.13
72106;SHT30;59975;47.646;18.318;2023-03-16T14:07:37;9.36;35.30
72106;SHT30;59975;47.646;18.318;2023-03-16T14:10:04;9.28;35.56
72106;SHT30;59975;47.646;18.318;2023-03-16T14:12:30;9.33;34.42
72106;SHT30;59975;47.646;18.318;2023-03-16T14:14:56;9.31;35.33
72106;SHT30;59975;47.646;18.318;2023-03-16T14:17:22;9.22;35.09
72106;SHT30;59975;47.646;18.318;2023-03-16T14:19:56;9.16;35.64
72106;SHT30;59975;47.646;18.318;2023-03-16T14:22:34;9.15;35.62
72106;SHT30;59975;47.646;18.318;2023-03-16T14:25:02;9.15;35.10
72106;SHT30;59975;47.646;18.318;2023-03-16T14:30:15;9.07;34.65
72106;SHT30;59975;47.646;18.318;2023-03-16T14:32:56;9.05;35.22
72106;SHT30;59975;47.646;18.318;2023-03-16T14:35:26;9.15;34.67
72106;SHT30;59975;47.646;18.318;2023-03-16T14:37:52;9.19;33.97
72106;SHT30;59975;47.646;18.318;2023-03-16T14:40:29;9.18;35.10
72106;SHT30;59975;47.646;18.318;2023-03-16T14:43:01;9.15;34.72
72106;SHT30;59975;47.646;18.318;2023-03-16T14:45:34;9.16;34.06
72106;SHT30;59975;47.646;18.318;2023-03-16T14:48:20;9.11;34.60
72106;SHT30;59975;47.646;18.318;2023-03-16T14:50:53;9.23;35.25
72106;SHT30;59975;47.646;18.318;2023-03-16T14:53:19;9.19;34.76
72106;SHT30;59975;47.646;18.318;2023-03-16T14:55:45;9.12;34.93
72106;SHT30;59975;47.646;18.318;2023-03-16T14:58:11;9.05;34.69
72106;SHT30;59975;47.646;18.318;2023-03-16T15:00:37;9.07;34.61
72106;SHT30;59975;47.646;18.318;2023-03-16T15:03:06;9.09;35.07
72106;SHT30;59975;47.646;18.318;2023-03-16T15:05:36;9.02;34.97
72106;SHT30;59975;47.646;18.318;2023-03-16T15:08:04;9.08;34.81
72106;SHT30;59975;47.646;18.318;2023-03-16T15:10:33;8.91;34.59
72106;SHT30;59975;47.646;18.318;2023-03-16T15:12:59;8.97;34.72
72106;SHT30;59975;47.646;18.318;2023-03-16T15:15:39;9.01;34.99
72106;SHT30;59975;47.646;18.318;2023-03-16T15:18:07;8.99;34.50
72106;SHT30;59975;47.646;18.318;2023-03-16T15:20:38;9.01;34.17
72106;SHT30;59975;47.646;18.318;2023-03-16T15:23:13;8.92;34.31
72106;SHT30;59975;47.646;18.318;2023-03-16T15:25:42;8.97;33.92
72106;SHT30;59975;47.646;18.318;2023-03-16T15:28:17;8.88;33.89
72106;SHT30;59975;47.646;18.318;2023-03-16T15:30:48;8.82;34.66
72106;SHT30;59975;47.646;18.318;2023-03-16T15:33:14;8.82;35.26
72106;SHT30;59975;47.646;18.318;2023-03-16T15:35:40;8.81;35.13
72106;SHT30;59975;47.646;18.318;2023-03-16T15:38:13;8.75;35.12
72106;SHT30;59975;47.646;18.318;2023-03-16T15:40:41;8.71;35.27
72106;SHT30;59975;47.646;18.318;2023-03-16T15:43:11;8.77;35.62
72106;SHT30;59975;47.646;18.318;2023-03-16T15:45:37;8.71;35.15
72106;SHT30;59975;47.646;18.318;2023-03-16T15:48:09;8.71;35.07
72106;SHT30;59975;47.646;18.318;2023-03-16T15:50:37;8.69;35.16
72106;SHT30;59975;47.646;18.318;2023-03-16T15:53:22;8.69;34.99
72106;SHT30;59975;47.646;18.318;2023-03-16T15:55:51;8.64;35.12
72106;SHT30;59975;47.646;18.318;2023-03-16T15:58:22;8.60;34.83
72106;SHT30;59975;47.646;18.318;2023-03-16T16:00:50;8.54;34.99
72106;SHT30;59975;47.646;18.318;2023-03-16T16:03:18;8.43;35.10
72106;SHT30;59975;47.646;18.318;2023-03-16T16:05:44;8.50;34.51
72106;SHT30;59975;47.646;18.318;2023-03-16T16:08:09;8.36;35.21
72106;SHT30;59975;47.646;18.318;2023-03-16T16:10:35;8.37;35.71
72106;SHT30;59975;47.646;18.318;2023-03-16T16:13:01;8.36;35.62
72106;SHT30;59975;47.646;18.318;2023-03-16T16:15:31;8.30;36.05
72106;SHT30;59975;47.646;18.318;2023-03-16T16:18:00;8.23;36.85
72106;SHT30;59975;47.646;18.318;2023-03-16T16:20:28;8.14;36.13
72106;SHT30;59975;47.646;18.318;2023-03-16T16:22:54;8.12;36.36
72106;SHT30;59975;47.646;18.318;2023-03-16T16:25:26;8.10;36.94
72106;SHT30;59975;47.646;18.318;2023-03-16T16:27:53;8.05;37.43
72106;SHT30;59975;47.646;18.318;2023-03-16T16:30:25;8.02;37.33
72106;SHT30;59975;47.646;18.318;2023-03-16T16:32:52;7.95;37.31
72106;SHT30;59975;47.646;18.318;2023-03-16T16:35:20;7.86;37.86
72106;SHT30;59975;47.646;18.318;2023-03-16T16:37:47;7.71;38.51
72106;SHT30;59975;47.646;18.318;2023-03-16T16:40:18;7.62;39.59
72106;SHT30;59975;47.646;18.318;2023-03-16T16:42:45;7.50;40.31
72106;SHT30;59975;47.646;18.318;2023-03-16T16:45:20;7.42;40.66
72106;SHT30;59975;47.646;18.318;2023-03-16T16:47:51;7.35;40.89
72106;SHT30;59975;47.646;18.318;2023-03-16T16:50:23;7.32;41.59
72106;SHT30;59975;47.646;18.318;2023-03-16T16:52:50;7.28;42.09
72106;SHT30;59975;47.646;18.318;2023-03-16T16:55:16;7.10;42.41
72106;SHT30;59975;47.646;18.318;2023-03-16T16:57:42;6.97;43.34
72106;SHT30;59975;47.646;18.318;2023-03-16T17:00:16;6.94;43.66
72106;SHT30;59975;47.646;18.318;2023-03-16T17:02:53;6.91;43.69
72106;SHT30;59975;47.646;18.318;2023-03-16T17:05:27;6.84;43.23
72106;SHT30;59975;47.646;18.318;2023-03-16T17:07:53;6.77;43.89
72106;SHT30;59975;47.646;18.318;2023-03-16T17:10:21;6.62;44.28
72106;SHT30;59975;47.646;18.318;2023-03-16T17:12:50;6.50;44.97
72106;SHT30;59975;47.646;18.318;2023-03-16T17:15:23;6.39;44.56
72106;SHT30;59975;47.646;18.318;2023-03-16T17:17:50;6.36;45.01
72106;SHT30;59975;47.646;18.318;2023-03-16T17:20:21;6.30;44.97
72106;SHT30;59975;47.646;18.318;2023-03-16T17:22:49;6.18;45.48
72106;SHT30;59975;47.646;18.318;2023-03-16T17:25:15;6.08;46.01
72106;SHT30;59975;47.646;18.318;2023-03-16T17:27:43;6.14;46.62
72106;SHT30;59975;47.646;18.318;2023-03-16T17:30:19;6.01;47.19
72106;SHT30;59975;47.646;18.318;2023-03-16T17:32:47;6.06;47.66
72106;SHT30;59975;47.646;18.318;2023-03-16T17:35:14;5.99;48.20
72106;SHT30;59975;47.646;18.318;2023-03-16T17:37:39;5.88;48.69
72106;SHT30;59975;47.646;18.318;2023-03-16T17:40:05;5.77;49.35
72106;SHT30;59975;47.646;18.318;2023-03-16T17:42:31;5.62;49.55
72106;SHT30;59975;47.646;18.318;2023-03-16T17:44:57;5.57;49.45
72106;SHT30;59975;47.646;18.318;2023-03-16T17:47:25;5.61;49.49
72106;SHT30;59975;47.646;18.318;2023-03-16T17:49:52;5.53;49.54
72106;SHT30;59975;47.646;18.318;2023-03-16T17:52:21;5.36;50.63
72106;SHT30;59975;47.646;18.318;2023-03-16T17:54:48;5.19;50.28
72106;SHT30;59975;47.646;18.318;2023-03-16T17:57:16;4.95;50.55
72106;SHT30;59975;47.646;18.318;2023-03-16T17:59:44;4.82;49.33
72106;SHT30;59975;47.646;18.318;2023-03-16T18:05:02;4.55;50.81